sensor_id;sensor_type;location;lat;lon;timestamp;temperature;humidity
32506;DHT22;18955;51.224;8.482;2022-08-05T00:01:45;22.90;74.40
32506;DHT22;18955;51.224;8.482;2022-08-05T00:04:12;22.90;74.50
32506;DHT22;18955;51.224;8.482;2022-08-05T00:06:38;22.80;74.50
32506;DHT22;18955;51.224;8.482;2022-08-05T00:09:04;22.80;74.60
32506;DHT22;18955;51.224;8.482;2022-08-05T00:11:31;22.80;74.30
32506;DHT22;18955;51.224;8.482;2022-08-05T00:13:57;22.70;74.20
32506;DHT22;18955;51.224;8.482;2022-08-05T00:16:23;22.70;74.20
32506;DHT22;18955;51.224;8.482;2022-08-05T00:18:49;22.70;74.50
32506;DHT22;18955;51.224;8.482;2022-08-05T00:21:16;22.70;74.60
32506;DHT22;18955;51.224;8.482;2022-08-05T00:23:45;22.70;74.60
32506;DHT22;18955;51.224;8.482;2022-08-05T00:26:12;22.70;74.40
32506;DHT22;18955;51.224;8.482;2022-08-05T00:28:38;22.60;75.00
32506;DHT22;18955;51.224;8.482;2022-08-05T00:31:05;22.60;74.40
32506;DHT22;18955;51.224;8.482;2022-08-05T00:33:31;22.60;74.50
32506;DHT22;18955;51.224;8.482;2022-08-05T00:35:58;22.60;74.70
32506;DHT22;18955;51.224;8.482;2022-08-05T00:38:24;22.60;74.50
32506;DHT22;18955;51.224;8.482;2022-08-05T00:40:53;22.50;74.60
32506;DHT22;18955;51.224;8.482;2022-08-05T00:43:20;22.50;74.50
32506;DHT22;18955;51.224;8.482;2022-08-05T00:45:47;22.50;74.60
32506;DHT22;18955;51.224;8.482;2022-08-05T00:48:18;22.50;74.60
32506;DHT22;18955;51.224;8.482;2022-08-05T00:50:47;22.40;74.60
32506;DHT22;18955;51.224;8.482;2022-08-05T00:53:15;22.40;74.60
32506;DHT22;18955;51.224;8.482;2022-08-05T00:55:42;22.40;74.50
32506;DHT22;18955;51.224;8.482;2022-08-05T00:58:14;22.30;74.50
32506;DHT22;18955;51.224;8.482;2022-08-05T01:00:44;22.30;74.60
32506;DHT22;18955;51.224;8.482;2022-08-05T01:03:10;22.30;74.80
32506;DHT22;18955;51.224;8.482;2022-08-05T01:05:37;22.30;74.60
32506;DHT22;18955;51.224;8.482;2022-08-05T01:08:04;22.30;74.50
32506;DHT22;18955;51.224;8.482;2022-08-05T01:10:34;22.30;74.60
32506;DHT22;18955;51.224;8.482;2022-08-05T01:13:15;22.20;74.60
32506;DHT22;18955;51.224;8.482;2022-08-05T01:15:52;22.20;74.80
32506;DHT22;18955;51.224;8.482;2022-08-05T01:18:37;22.20;74.70
32506;DHT22;18955;51.224;8.482;2022-08-05T01:21:11;22.20;74.60
32506;DHT22;18955;51.224;8.482;2022-08-05T01:26:47;22.10;74.60
32506;DHT22;18955;51.224;8.482;2022-08-05T01:29:24;22.10;74.70
32506;DHT22;18955;51.224;8.482;2022-08-05T01:31:53;22.10;74.40
32506;DHT22;18955;51.224;8.482;2022-08-05T01:34:40;22.00;74.40
32506;DHT22;18955;51.224;8.482;2022-08-05T01:39:56;22.00;74.50
32506;DHT22;18955;51.224;8.482;2022-08-05T01:42:24;22.00;74.80
32506;DHT22;18955;51.224;8.482;2022-08-05T01:44:52;22.00;74.80
32506;DHT22;18955;51.224;8.482;2022-08-05T01:47:21;21.90;74.60
32506;DHT22;18955;51.224;8.482;2022-08-05T01:49:51;21.90;74.70
32506;DHT22;18955;51.224;8.482;2022-08-05T01:52:20;21.90;74.60
32506;DHT22;18955;51.224;8.482;2022-08-05T01:54:51;21.90;74.70
32506;DHT22;18955;51.224;8.482;2022-08-05T01:57:33;21.90;74.90
32506;DHT22;18955;51.224;8.482;2022-08-05T02:00:01;21.80;74.70
32506;DHT22;18955;51.224;8.482;2022-08-05T02:02:31;21.80;74.60
32506;DHT22;18955;51.224;8.482;2022-08-05T02:05:00;21.80;74.80
32506;DHT22;18955;51.224;8.482;2022-08-05T02:07:30;21.80;74.70
32506;DHT22;18955;51.224;8.482;2022-08-05T02:09:57;21.80;74.90
32506;DHT22;18955;51.224;8.482;2022-08-05T02:15:03;21.80;74.70
32506;DHT22;18955;51.224;8.482;2022-08-05T02:17:36;21.70;74.80
32506;DHT22;18955;51.224;8.482;2022-08-05T02:20:07;21.70;74.80
32506;DHT22;18955;51.224;8.482;2022-08-05T02:22:41;21.70;74.80
32506;DHT22;18955;51.224;8.482;2022-08-05T02:25:15;21.60;75.00
32506;DHT22;18955;51.224;8.482;2022-08-05T02:27:42;21.60;74.60
32506;DHT22;18955;51.224;8.482;2022-08-05T02:30:15;21.60;74.70
32506;DHT22;18955;51.224;8.482;2022-08-05T02:32:42;21.60;74.70
32506;DHT22;18955;51.224;8.482;2022-08-05T02:35:15;21.50;74.70
32506;DHT22;18955;51.224;8.482;2022-08-05T02:37:45;21.50;75.00
32506;DHT22;18955;51.224;8.482;2022-08-05T02:40:14;21.50;74.80
32506;DHT22;18955;51.224;8.482;2022-08-05T02:42:41;21.50;74.80
32506;DHT22;18955;51.224;8.482;2022-08-05T02:45:09;21.50;75.00
32506;DHT22;18955;51.224;8.482;2022-08-05T02:47:36;21.50;74.80
32506;DHT22;18955;51.224;8.482;2022-08-05T02:50:04;21.40;74.90
32506;DHT22;18955;51.224;8.482;2022-08-05T02:52:32;21.40;74.80
32506;DHT22;18955;51.224;8.482;2022-08-05T02:55:01;21.40;74.60
32506;DHT22;18955;51.224;8.482;2022-08-05T02:57:28;21.40;74.70
32506;DHT22;18955;51.224;8.482;2022-08-05T02:59:55;21.40;74.70
32506;DHT22;18955;51.224;8.482;2022-08-05T03:02:27;21.40;74.70
32506;DHT22;18955;51.224;8.482;2022-08-05T03:04:56;21.30;75.00
32506;DHT22;18955;51.224;8.482;2022-08-05T03:07:24;21.30;75.30
32506;DHT22;18955;51.224;8.482;2022-08-05T03:09:51;21.30;74.90
32506;DHT22;18955;51.224;8.482;2022-08-05T03:12:35;21.30;74.80
32506;DHT22;18955;51.224;8.482;2022-08-05T03:15:03;21.30;74.90
32506;DHT22;18955;51.224;8.482;2022-08-05T03:17:30;21.20;74.90
32506;DHT22;18955;51.224;8.482;2022-08-05T03:19:57;21.20;75.00
32506;DHT22;18955;51.224;8.482;2022-08-05T03:22:24;21.20;74.70
32506;DHT22;18955;51.224;8.482;2022-08-05T03:24:51;21.20;74.90
32506;DHT22;18955;51.224;8.482;2022-08-05T03:27:17;21.20;74.80
32506;DHT22;18955;51.224;8.482;2022-08-05T03:29:44;21.20;74.90
32506;DHT22;18955;51.224;8.482;2022-08-05T03:32:11;21.20;75.10
32506;DHT22;18955;51.224;8.482;2022-08-05T03:34:38;21.10;75.00
32506;DHT22;18955;51.224;8.482;2022-08-05T03:37:04;21.10;75.20
32506;DHT22;18955;51.224;8.482;2022-08-05T03:39:31;21.10;75.00
32506;DHT22;18955;51.224;8.482;2022-08-05T03:41:57;21.10;75.10
32506;DHT22;18955;51.224;8.482;2022-08-05T03:44:24;21.10;75.20
32506;DHT22;18955;51.224;8.482;2022-08-05T03:46:50;21.10;75.10
32506;DHT22;18955;51.224;8.482;2022-08-05T03:49:17;21.10;74.90
32506;DHT22;18955;51.224;8.482;2022-08-05T03:54:31;21.00;75.00
32506;DHT22;18955;51.224;8.482;2022-08-05T03:56:59;21.00;75.00
32506;DHT22;18955;51.224;8.482;2022-08-05T03:59:34;21.00;75.20
32506;DHT22;18955;51.224;8.482;2022-08-05T04:02:02;21.00;75.00
32506;DHT22;18955;51.224;8.482;2022-08-05T04:04:30;20.90;75.00
32506;DHT22;18955;51.224;8.482;2022-08-05T04:06:58;20.90;74.90
32506;DHT22;18955;51.224;8.482;2022-08-05T04:09:25;20.90;75.00
32506;DHT22;18955;51.224;8.482;2022-08-05T04:11:52;20.90;75.10
32506;DHT22;18955;51.224;8.482;2022-08-05T04:14:18;20.90;75.00
32506;DHT22;18955;51.224;8.482;2022-08-05T04:16:46;20.80;75.00
32506;DHT22;18955;51.224;8.482;2022-08-05T04:19:13;20.80;75.00
32506;DHT22;18955;51.224;8.482;2022-08-05T04:21:40;20.80;75.00
32506;DHT22;18955;51.224;8.482;2022-08-05T04:24:06;20.80;75.10
32506;DHT22;18955;51.224;8.482;2022-08-05T04:26:33;20.80;75.10
32506;DHT22;18955;51.224;8.482;2022-08-05T04:29:00;20.80;75.10
32506;DHT22;18955;51.224;8.482;2022-08-05T04:31:26;20.80;75.00
32506;DHT22;18955;51.224;8.482;2022-08-05T04:33:53;20.70;75.20
32506;DHT22;18955;51.224;8.482;2022-08-05T04:36:19;20.70;75.20
32506;DHT22;18955;51.224;8.482;2022-08-05T04:38:45;20.70;74.80
32506;DHT22;18955;51.224;8.482;2022-08-05T04:41:12;20.70;75.20
32506;DHT22;18955;51.224;8.482;2022-08-05T04:43:38;20.70;75.00
32506;DHT22;18955;51.224;8.482;2022-08-05T04:46:04;20.70;75.20
32506;DHT22;18955;51.224;8.482;2022-08-05T04:48:31;20.60;75.00
32506;DHT22;18955;51.224;8.482;2022-08-05T04:50:57;20.60;75.30
32506;DHT22;18955;51.224;8.482;2022-08-05T04:53:23;20.60;75.10
32506;DHT22;18955;51.224;8.482;2022-08-05T04:55:50;20.60;75.10
32506;DHT22;18955;51.224;8.482;2022-08-05T04:58:16;20.60;75.00
32506;DHT22;18955;51.224;8.482;2022-08-05T05:00:43;20.60;75.20
32506;DHT22;18955;51.224;8.482;2022-08-05T05:03:10;20.50;75.00
32506;DHT22;18955;51.224;8.482;2022-08-05T05:05:37;20.50;75.20
32506;DHT22;18955;51.224;8.482;2022-08-05T05:08:05;20.50;75.00
32506;DHT22;18955;51.224;8.482;2022-08-05T05:10:52;20.50;75.20
32506;DHT22;18955;51.224;8.482;2022-08-05T05:13:18;20.50;75.00
32506;DHT22;18955;51.224;8.482;2022-08-05T05:15:45;20.50;75.10
32506;DHT22;18955;51.224;8.482;2022-08-05T05:18:11;20.40;75.20
32506;DHT22;18955;51.224;8.482;2022-08-05T05:20:38;20.40;75.20
32506;DHT22;18955;51.224;8.482;2022-08-05T05:23:04;20.40;75.20
32506;DHT22;18955;51.224;8.482;2022-08-05T05:25:31;20.40;75.10
32506;DHT22;18955;51.224;8.482;2022-08-05T05:27:57;20.40;75.10
32506;DHT22;18955;51.224;8.482;2022-08-05T05:30:23;20.40;75.10
32506;DHT22;18955;51.224;8.482;2022-08-05T05:32:50;20.40;75.70
32506;DHT22;18955;51.224;8.482;2022-08-05T05:35:16;20.40;75.30
32506;DHT22;18955;51.224;8.482;2022-08-05T05:38:02;20.40;75.40
32506;DHT22;18955;51.224;8.482;2022-08-05T05:40:30;20.40;75.10
32506;DHT22;18955;51.224;8.482;2022-08-05T05:42:57;20.30;75.00
32506;DHT22;18955;51.224;8.482;2022-08-05T05:45:23;20.30;75.10
32506;DHT22;18955;51.224;8.482;2022-08-05T05:47:50;20.30;75.20
32506;DHT22;18955;51.224;8.482;2022-08-05T05:50:17;20.30;75.20
32506;DHT22;18955;51.224;8.482;2022-08-05T05:52:45;20.30;75.40
32506;DHT22;18955;51.224;8.482;2022-08-05T05:55:13;20.30;75.10
32506;DHT22;18955;51.224;8.482;2022-08-05T05:57:41;20.30;75.10
32506;DHT22;18955;51.224;8.482;2022-08-05T06:00:12;20.30;75.10
32506;DHT22;18955;51.224;8.482;2022-08-05T06:02:38;20.20;75.20
32506;DHT22;18955;51.224;8.482;2022-08-05T06:05:09;20.20;75.20
32506;DHT22;18955;51.224;8.482;2022-08-05T06:07:36;20.20;75.30
32506;DHT22;18955;51.224;8.482;2022-08-05T06:10:04;20.20;75.20
32506;DHT22;18955;51.224;8.482;2022-08-05T06:12:30;20.20;75.10
32506;DHT22;18955;51.224;8.482;2022-08-05T06:14:56;20.20;75.40
32506;DHT22;18955;51.224;8.482;2022-08-05T06:17:23;20.20;75.30
32506;DHT22;18955;51.224;8.482;2022-08-05T06:19:49;20.20;75.30
32506;DHT22;18955;51.224;8.482;2022-08-05T06:22:32;20.10;75.30
32506;DHT22;18955;51.224;8.482;2022-08-05T06:24:58;20.10;75.30
32506;DHT22;18955;51.224;8.482;2022-08-05T06:27:25;20.10;75.30
32506;DHT22;18955;51.224;8.482;2022-08-05T06:29:51;20.10;75.40
32506;DHT22;18955;51.224;8.482;2022-08-05T06:32:18;20.10;75.20
32506;DHT22;18955;51.224;8.482;2022-08-05T06:34:44;20.10;75.30
32506;DHT22;18955;51.224;8.482;2022-08-05T06:37:10;20.10;75.20
32506;DHT22;18955;51.224;8.482;2022-08-05T06:39:36;20.10;75.30
32506;DHT22;18955;51.224;8.482;2022-08-05T06:42:04;20.10;75.20
32506;DHT22;18955;51.224;8.482;2022-08-05T06:44:30;20.10;75.20
32506;DHT22;18955;51.224;8.482;2022-08-05T06:46:57;20.10;75.10
32506;DHT22;18955;51.224;8.482;2022-08-05T06:49:23;20.10;75.20
32506;DHT22;18955;51.224;8.482;2022-08-05T06:51:50;20.10;75.10
32506;DHT22;18955;51.224;8.482;2022-08-05T06:54:16;20.10;75.10
32506;DHT22;18955;51.224;8.482;2022-08-05T06:56:42;20.10;75.10
32506;DHT22;18955;51.224;8.482;2022-08-05T06:59:09;20.10;75.00
32506;DHT22;18955;51.224;8.482;2022-08-05T07:01:39;20.00;74.90
32506;DHT22;18955;51.224;8.482;2022-08-05T07:04:05;20.10;75.10
32506;DHT22;18955;51.224;8.482;2022-08-05T07:06:32;20.10;75.10
32506;DHT22;18955;51.224;8.482;2022-08-05T07:08:59;20.10;74.80
32506;DHT22;18955;51.224;8.482;2022-08-05T07:11:26;20.10;74.70
32506;DHT22;18955;51.224;8.482;2022-08-05T07:13:53;20.10;74.70
32506;DHT22;18955;51.224;8.482;2022-08-05T07:16:38;20.10;74.80
32506;DHT22;18955;51.224;8.482;2022-08-05T07:19:19;20.10;74.60
32506;DHT22;18955;51.224;8.482;2022-08-05T07:21:47;20.10;74.70
32506;DHT22;18955;51.224;8.482;2022-08-05T07:24:14;20.10;74.90
32506;DHT22;18955;51.224;8.482;2022-08-05T07:26:41;20.00;74.80
32506;DHT22;18955;51.224;8.482;2022-08-05T07:29:08;20.00;74.60
32506;DHT22;18955;51.224;8.482;2022-08-05T07:31:34;20.10;74.70
32506;DHT22;18955;51.224;8.482;2022-08-05T07:34:00;20.10;74.50
32506;DHT22;18955;51.224;8.482;2022-08-05T07:36:28;20.10;74.50
32506;DHT22;18955;51.224;8.482;2022-08-05T07:38:54;20.10;74.60
32506;DHT22;18955;51.224;8.482;2022-08-05T07:41:22;20.10;74.70
32506;DHT22;18955;51.224;8.482;2022-08-05T07:43:49;20.00;74.50
32506;DHT22;18955;51.224;8.482;2022-08-05T07:46:15;20.10;75.20
32506;DHT22;18955;51.224;8.482;2022-08-05T07:48:41;20.00;74.40
32506;DHT22;18955;51.224;8.482;2022-08-05T07:51:07;20.10;74.50
32506;DHT22;18955;51.224;8.482;2022-08-05T07:53:34;20.10;74.50
32506;DHT22;18955;51.224;8.482;2022-08-05T07:56:03;20.00;74.30
32506;DHT22;18955;51.224;8.482;2022-08-05T07:58:29;20.00;74.20
32506;DHT22;18955;51.224;8.482;2022-08-05T08:00:55;20.10;74.50
32506;DHT22;18955;51.224;8.482;2022-08-05T08:03:22;20.10;74.30
32506;DHT22;18955;51.224;8.482;2022-08-05T08:05:49;20.10;74.30
32506;DHT22;18955;51.224;8.482;2022-08-05T08:08:19;20.10;74.20
32506;DHT22;18955;51.224;8.482;2022-08-05T08:10:45;20.10;74.80
32506;DHT22;18955;51.224;8.482;2022-08-05T08:13:11;20.10;74.30
32506;DHT22;18955;51.224;8.482;2022-08-05T08:15:38;20.10;74.60
32506;DHT22;18955;51.224;8.482;2022-08-05T08:18:04;20.10;74.40
32506;DHT22;18955;51.224;8.482;2022-08-05T08:20:30;20.10;74.30
32506;DHT22;18955;51.224;8.482;2022-08-05T08:22:58;20.10;74.20
32506;DHT22;18955;51.224;8.482;2022-08-05T08:25:25;20.10;74.20
32506;DHT22;18955;51.224;8.482;2022-08-05T08:27:54;20.10;74.20
32506;DHT22;18955;51.224;8.482;2022-08-05T08:30:21;20.10;74.20
32506;DHT22;18955;51.224;8.482;2022-08-05T08:32:47;20.20;74.40
32506;DHT22;18955;51.224;8.482;2022-08-05T08:35:13;20.10;74.30
32506;DHT22;18955;51.224;8.482;2022-08-05T08:37:40;20.10;74.30
32506;DHT22;18955;51.224;8.482;2022-08-05T08:40:06;20.10;74.20
32506;DHT22;18955;51.224;8.482;2022-08-05T08:42:33;20.10;74.30
32506;DHT22;18955;51.224;8.482;2022-08-05T08:44:59;20.10;74.40
32506;DHT22;18955;51.224;8.482;2022-08-05T08:47:27;20.10;74.40
32506;DHT22;18955;51.224;8.482;2022-08-05T08:49:55;20.20;74.40
32506;DHT22;18955;51.224;8.482;2022-08-05T08:52:32;20.20;74.40
32506;DHT22;18955;51.224;8.482;2022-08-05T08:55:00;20.10;74.30
32506;DHT22;18955;51.224;8.482;2022-08-05T08:57:29;20.20;74.30
32506;DHT22;18955;51.224;8.482;2022-08-05T08:59:57;20.20;74.30
32506;DHT22;18955;51.224;8.482;2022-08-05T09:02:23;20.20;74.40
32506;DHT22;18955;51.224;8.482;2022-08-05T09:04:50;20.20;74.40
32506;DHT22;18955;51.224;8.482;2022-08-05T09:07:16;20.20;74.40
32506;DHT22;18955;51.224;8.482;2022-08-05T09:09:43;20.20;74.60
32506;DHT22;18955;51.224;8.482;2022-08-05T09:12:09;20.20;74.40
32506;DHT22;18955;51.224;8.482;2022-08-05T09:14:36;20.20;74.50
32506;DHT22;18955;51.224;8.482;2022-08-05T09:17:09;20.30;74.40
32506;DHT22;18955;51.224;8.482;2022-08-05T09:19:37;20.20;74.30
32506;DHT22;18955;51.224;8.482;2022-08-05T09:22:03;20.20;74.30
32506;DHT22;18955;51.224;8.482;2022-08-05T09:24:30;20.20;74.20
32506;DHT22;18955;51.224;8.482;2022-08-05T09:26:57;20.30;74.30
32506;DHT22;18955;51.224;8.482;2022-08-05T09:29:44;20.30;74.50
32506;DHT22;18955;51.224;8.482;2022-08-05T09:32:14;20.30;74.30
32506;DHT22;18955;51.224;8.482;2022-08-05T09:34:51;20.30;74.30
32506;DHT22;18955;51.224;8.482;2022-08-05T09:39:45;20.30;74.30
32506;DHT22;18955;51.224;8.482;2022-08-05T09:42:14;20.30;74.60
32506;DHT22;18955;51.224;8.482;2022-08-05T09:44:45;20.30;74.70
32506;DHT22;18955;51.224;8.482;2022-08-05T09:49:46;20.30;74.80
32506;DHT22;18955;51.224;8.482;2022-08-05T09:52:33;20.30;74.80
32506;DHT22;18955;51.224;8.482;2022-08-05T10:00:20;20.40;74.70
32506;DHT22;18955;51.224;8.482;2022-08-05T10:02:51;20.30;74.70
32506;DHT22;18955;51.224;8.482;2022-08-05T10:05:23;20.40;74.80
32506;DHT22;18955;51.224;8.482;2022-08-05T10:07:56;20.30;74.60
32506;DHT22;18955;51.224;8.482;2022-08-05T10:10:46;20.30;74.90
32506;DHT22;18955;51.224;8.482;2022-08-05T10:13:35;20.30;75.10
32506;DHT22;18955;51.224;8.482;2022-08-05T10:16:03;20.30;75.00
32506;DHT22;18955;51.224;8.482;2022-08-05T10:18:30;20.30;75.00
32506;DHT22;18955;51.224;8.482;2022-08-05T10:21:04;20.30;75.00
32506;DHT22;18955;51.224;8.482;2022-08-05T10:23:36;20.40;75.20
32506;DHT22;18955;51.224;8.482;2022-08-05T10:26:05;20.30;75.10
32506;DHT22;18955;51.224;8.482;2022-08-05T10:28:32;20.30;75.00
32506;DHT22;18955;51.224;8.482;2022-08-05T10:30:59;20.30;75.00
32506;DHT22;18955;51.224;8.482;2022-08-05T10:33:30;20.30;75.00
32506;DHT22;18955;51.224;8.482;2022-08-05T10:35:58;20.40;75.20
32506;DHT22;18955;51.224;8.482;2022-08-05T10:38:27;20.30;75.00
32506;DHT22;18955;51.224;8.482;2022-08-05T10:41:27;20.30;74.90
32506;DHT22;18955;51.224;8.482;2022-08-05T10:44:04;20.30;74.90
32506;DHT22;18955;51.224;8.482;2022-08-05T10:46:48;20.30;74.80
32506;DHT22;18955;51.224;8.482;2022-08-05T10:49:19;20.30;74.90
32506;DHT22;18955;51.224;8.482;2022-08-05T10:51:48;20.30;74.80
32506;DHT22;18955;51.224;8.482;2022-08-05T10:54:16;20.30;74.90
32506;DHT22;18955;51.224;8.482;2022-08-05T10:56:47;20.30;74.80
32506;DHT22;18955;51.224;8.482;2022-08-05T10:59:24;20.30;74.80
32506;DHT22;18955;51.224;8.482;2022-08-05T11:04:45;20.30;74.90
32506;DHT22;18955;51.224;8.482;2022-08-05T11:07:12;20.30;75.00
32506;DHT22;18955;51.224;8.482;2022-08-05T11:09:48;20.40;74.90
32506;DHT22;18955;51.224;8.482;2022-08-05T11:15:14;20.30;74.70
32506;DHT22;18955;51.224;8.482;2022-08-05T11:17:43;20.30;75.00
32506;DHT22;18955;51.224;8.482;2022-08-05T11:22:57;20.30;74.90
32506;DHT22;18955;51.224;8.482;2022-08-05T11:25:35;20.30;74.50
32506;DHT22;18955;51.224;8.482;2022-08-05T11:36:07;20.30;74.90
32506;DHT22;18955;51.224;8.482;2022-08-05T11:41:29;20.20;74.70
32506;DHT22;18955;51.224;8.482;2022-08-05T11:44:02;20.20;74.90
32506;DHT22;18955;51.224;8.482;2022-08-05T11:46:46;20.20;74.90
32506;DHT22;18955;51.224;8.482;2022-08-05T11:49:15;20.20;74.70
32506;DHT22;18955;51.224;8.482;2022-08-05T11:51:43;20.30;74.60
32506;DHT22;18955;51.224;8.482;2022-08-05T11:54:11;20.20;74.70
32506;DHT22;18955;51.224;8.482;2022-08-05T11:56:45;20.20;74.50
32506;DHT22;18955;51.224;8.482;2022-08-05T11:59:31;20.20;74.90
32506;DHT22;18955;51.224;8.482;2022-08-05T12:01:59;20.20;74.80
32506;DHT22;18955;51.224;8.482;2022-08-05T12:04:36;20.20;74.40
32506;DHT22;18955;51.224;8.482;2022-08-05T12:07:02;20.10;74.70
32506;DHT22;18955;51.224;8.482;2022-08-05T12:09:30;20.10;74.40
32506;DHT22;18955;51.224;8.482;2022-08-05T12:12:00;20.10;74.50
32506;DHT22;18955;51.224;8.482;2022-08-05T12:14:41;20.10;74.80
32506;DHT22;18955;51.224;8.482;2022-08-05T12:17:14;20.10;74.40
32506;DHT22;18955;51.224;8.482;2022-08-05T12:19:47;20.10;74.50
32506;DHT22;18955;51.224;8.482;2022-08-05T12:22:16;20.10;74.40
32506;DHT22;18955;51.224;8.482;2022-08-05T12:24:48;20.10;74.40
32506;DHT22;18955;51.224;8.482;2022-08-05T12:27:28;20.00;74.40
32506;DHT22;18955;51.224;8.482;2022-08-05T12:30:05;20.10;74.40
32506;DHT22;18955;51.224;8.482;2022-08-05T12:32:44;20.10;74.30
32506;DHT22;18955;51.224;8.482;2022-08-05T12:35:11;20.00;74.40
32506;DHT22;18955;51.224;8.482;2022-08-05T12:37:41;20.00;74.50
32506;DHT22;18955;51.224;8.482;2022-08-05T12:40:08;20.00;74.50
32506;DHT22;18955;51.224;8.482;2022-08-05T12:42:35;20.00;74.40
32506;DHT22;18955;51.224;8.482;2022-08-05T12:45:06;19.90;74.40
32506;DHT22;18955;51.224;8.482;2022-08-05T12:47:32;19.90;74.60
32506;DHT22;18955;51.224;8.482;2022-08-05T12:49:59;19.90;74.50
32506;DHT22;18955;51.224;8.482;2022-08-05T12:52:26;19.90;74.60
32506;DHT22;18955;51.224;8.482;2022-08-05T12:54:52;19.90;74.50
32506;DHT22;18955;51.224;8.482;2022-08-05T12:57:18;19.90;74.40
32506;DHT22;18955;51.224;8.482;2022-08-05T12:59:50;19.90;74.50
32506;DHT22;18955;51.224;8.482;2022-08-05T13:02:24;19.80;74.50
32506;DHT22;18955;51.224;8.482;2022-08-05T13:04:52;19.80;74.50
32506;DHT22;18955;51.224;8.482;2022-08-05T13:07:24;19.80;74.60
32506;DHT22;18955;51.224;8.482;2022-08-05T13:09:53;19.80;74.50
32506;DHT22;18955;51.224;8.482;2022-08-05T13:12:22;19.80;74.30
32506;DHT22;18955;51.224;8.482;2022-08-05T13:22:36;19.70;74.40
32506;DHT22;18955;51.224;8.482;2022-08-05T13:25:09;19.70;74.40
32506;DHT22;18955;51.224;8.482;2022-08-05T13:27:37;19.70;74.20
32506;DHT22;18955;51.224;8.482;2022-08-05T13:30:05;19.60;74.30
32506;DHT22;18955;51.224;8.482;2022-08-05T13:32:32;19.60;74.40
32506;DHT22;18955;51.224;8.482;2022-08-05T13:34:58;19.60;74.30
32506;DHT22;18955;51.224;8.482;2022-08-05T13:37:24;19.60;74.40
32506;DHT22;18955;51.224;8.482;2022-08-05T13:39:51;19.60;74.10
32506;DHT22;18955;51.224;8.482;2022-08-05T13:42:19;19.60;74.30
32506;DHT22;18955;51.224;8.482;2022-08-05T13:44:50;19.60;74.30
32506;DHT22;18955;51.224;8.482;2022-08-05T13:47:16;19.50;74.20
32506;DHT22;18955;51.224;8.482;2022-08-05T13:49:42;19.50;74.20
32506;DHT22;18955;51.224;8.482;2022-08-05T13:52:13;19.50;74.30
32506;DHT22;18955;51.224;8.482;2022-08-05T13:54:40;19.50;73.90
32506;DHT22;18955;51.224;8.482;2022-08-05T13:57:07;19.50;74.10
32506;DHT22;18955;51.224;8.482;2022-08-05T13:59:34;19.50;74.00
32506;DHT22;18955;51.224;8.482;2022-08-05T14:02:01;19.40;73.90
32506;DHT22;18955;51.224;8.482;2022-08-05T14:04:33;19.50;73.90
32506;DHT22;18955;51.224;8.482;2022-08-05T14:07:26;19.50;74.10
32506;DHT22;18955;51.224;8.482;2022-08-05T14:09:53;19.40;73.90
32506;DHT22;18955;51.224;8.482;2022-08-05T14:12:20;19.40;74.00
32506;DHT22;18955;51.224;8.482;2022-08-05T14:14:47;19.40;74.10
32506;DHT22;18955;51.224;8.482;2022-08-05T14:17:13;19.40;74.10
32506;DHT22;18955;51.224;8.482;2022-08-05T14:19:41;19.40;74.10
32506;DHT22;18955;51.224;8.482;2022-08-05T14:22:07;19.40;73.90
32506;DHT22;18955;51.224;8.482;2022-08-05T14:24:34;19.40;73.90
32506;DHT22;18955;51.224;8.482;2022-08-05T14:27:01;19.50;73.80
32506;DHT22;18955;51.224;8.482;2022-08-05T14:29:28;19.50;73.60
32506;DHT22;18955;51.224;8.482;2022-08-05T14:31:54;19.40;73.50
32506;DHT22;18955;51.224;8.482;2022-08-05T14:34:20;19.50;73.80
32506;DHT22;18955;51.224;8.482;2022-08-05T14:36:47;19.50;73.70
32506;DHT22;18955;51.224;8.482;2022-08-05T14:39:13;19.50;73.60
32506;DHT22;18955;51.224;8.482;2022-08-05T14:41:39;19.50;73.50
32506;DHT22;18955;51.224;8.482;2022-08-05T14:44:05;19.60;73.50
32506;DHT22;18955;51.224;8.482;2022-08-05T14:46:33;19.60;73.30
32506;DHT22;18955;51.224;8.482;2022-08-05T14:49:00;19.60;73.20
32506;DHT22;18955;51.224;8.482;2022-08-05T14:51:27;19.60;73.00
32506;DHT22;18955;51.224;8.482;2022-08-05T14:53:53;19.60;73.00
32506;DHT22;18955;51.224;8.482;2022-08-05T14:56:20;19.60;72.90
32506;DHT22;18955;51.224;8.482;2022-08-05T14:58:46;19.70;72.90
32506;DHT22;18955;51.224;8.482;2022-08-05T15:01:12;19.70;72.80
32506;DHT22;18955;51.224;8.482;2022-08-05T15:03:38;19.70;72.70
32506;DHT22;18955;51.224;8.482;2022-08-05T15:06:05;19.70;72.60
32506;DHT22;18955;51.224;8.482;2022-08-05T15:08:32;19.70;72.50
32506;DHT22;18955;51.224;8.482;2022-08-05T15:10:58;19.70;72.50
32506;DHT22;18955;51.224;8.482;2022-08-05T15:13:24;19.80;72.60
32506;DHT22;18955;51.224;8.482;2022-08-05T15:15:51;19.70;72.60
32506;DHT22;18955;51.224;8.482;2022-08-05T15:18:17;19.80;72.60
32506;DHT22;18955;51.224;8.482;2022-08-05T15:20:43;19.80;72.60
32506;DHT22;18955;51.224;8.482;2022-08-05T15:23:10;19.80;72.40
32506;DHT22;18955;51.224;8.482;2022-08-05T15:25:38;19.90;72.40
32506;DHT22;18955;51.224;8.482;2022-08-05T15:28:06;19.90;72.30
32506;DHT22;18955;51.224;8.482;2022-08-05T15:30:32;19.90;72.80
32506;DHT22;18955;51.224;8.482;2022-08-05T15:33:04;20.00;72.10
32506;DHT22;18955;51.224;8.482;2022-08-05T15:35:31;20.00;72.00
32506;DHT22;18955;51.224;8.482;2022-08-05T15:37:58;20.00;71.90
32506;DHT22;18955;51.224;8.482;2022-08-05T15:40:24;20.00;71.90
32506;DHT22;18955;51.224;8.482;2022-08-05T15:42:50;20.00;72.20
32506;DHT22;18955;51.224;8.482;2022-08-05T15:45:17;19.90;72.50
32506;DHT22;18955;51.224;8.482;2022-08-05T15:47:44;19.90;72.20
32506;DHT22;18955;51.224;8.482;2022-08-05T15:50:12;19.90;72.20
32506;DHT22;18955;51.224;8.482;2022-08-05T15:52:38;19.90;72.50
32506;DHT22;18955;51.224;8.482;2022-08-05T15:55:07;19.90;72.30
32506;DHT22;18955;51.224;8.482;2022-08-05T15:57:34;19.90;72.60
32506;DHT22;18955;51.224;8.482;2022-08-05T16:00:02;19.90;72.50
32506;DHT22;18955;51.224;8.482;2022-08-05T16:02:30;19.90;73.20
32506;DHT22;18955;51.224;8.482;2022-08-05T16:04:57;19.90;72.50
32506;DHT22;18955;51.224;8.482;2022-08-05T16:07:23;20.00;72.70
32506;DHT22;18955;51.224;8.482;2022-08-05T16:09:49;20.00;72.40
32506;DHT22;18955;51.224;8.482;2022-08-05T16:12:16;20.00;72.20
32506;DHT22;18955;51.224;8.482;2022-08-05T16:14:42;20.00;72.40
32506;DHT22;18955;51.224;8.482;2022-08-05T16:17:09;20.00;72.60
32506;DHT22;18955;51.224;8.482;2022-08-05T16:19:36;20.00;72.60
32506;DHT22;18955;51.224;8.482;2022-08-05T16:22:02;19.90;72.60
32506;DHT22;18955;51.224;8.482;2022-08-05T16:24:29;19.90;72.60
32506;DHT22;18955;51.224;8.482;2022-08-05T16:27:00;19.90;72.70
32506;DHT22;18955;51.224;8.482;2022-08-05T16:29:27;19.90;72.70